sensor_id;sensor_type;location;lat;lon;timestamp;pressure;altitude;pressure_sealevel;temperature;humidity
60583;BME280;46415;47.536;19.066;2023-05-25T00:00:03;-18672.44;;;16.34;100.00
60583;BME280;46415;47.536;19.066;2023-05-25T00:03:07;-18670.94;;;16.29;100.00
60583;BME280;46415;47.536;19.066;2023-05-25T00:06:11;-18670.69;;;16.28;100.00
60583;BME280;46415;47.536;19.066;2023-05-25T00:09:14;-18670.41;;;16.27;100.00
60583;BME280;46415;47.536;19.066;2023-05-25T00:12:18;-18672.31;;;16.34;100.00
60583;BME280;46415;47.536;19.066;2023-05-25T00:15:20;-18671.34;;;16.30;100.00
60583;BME280;46415;47.536;19.066;2023-05-25T00:18:23;-18672.03;;;16.33;100.00
60583;BME280;46415;47.536;19.066;2023-05-25T00:21:28;-18668.37;;;16.19;100.00
60583;BME280;46415;47.536;19.066;2023-05-25T00:24:31;-18668.78;;;16.21;100.00
60583;BME280;46415;47.536;19.066;2023-05-25T00:27:34;-18668.22;;;16.19;100.00
60583;BME280;46415;47.536;19.066;2023-05-25T00:30:37;-18668.22;;;16.19;100.00
60583;BME280;46415;47.536;19.066;2023-05-25T00:33:40;-18666.19;;;16.11;100.00
60583;BME280;46415;47.536;19.066;2023-05-25T00:36:43;-18664.13;;;16.04;100.00
60583;BME280;46415;47.536;19.066;2023-05-25T00:39:49;-18663.59;;;16.02;100.00
60583;BME280;46415;47.536;19.066;2023-05-25T00:42:52;-18664.81;;;16.06;100.00
60583;BME280;46415;47.536;19.066;2023-05-25T00:45:55;-18666.19;;;16.11;100.00
60583;BME280;46415;47.536;19.066;2023-05-25T00:48:58;-18666.88;;;16.14;100.00
60583;BME280;46415;47.536;19.066;2023-05-25T00:52:01;-18666.88;;;16.14;100.00
60583;BME280;46415;47.536;19.066;2023-05-25T00:55:05;-18667.69;;;16.17;100.00
60583;BME280;46415;47.536;19.066;2023-05-25T00:58:10;-18669.88;;;16.25;100.00
60583;BME280;46415;47.536;19.066;2023-05-25T01:01:15;-18668.63;;;16.20;100.00
60583;BME280;46415;47.536;19.066;2023-05-25T01:04:19;-18667.13;;;16.15;100.00
60583;BME280;46415;47.536;19.066;2023-05-25T01:07:23;-18667.41;;;16.16;100.00
60583;BME280;46415;47.536;19.066;2023-05-25T01:10:30;-18664.41;;;16.05;100.00
60583;BME280;46415;47.536;19.066;2023-05-25T01:13:34;-18662.38;;;15.97;100.00
60583;BME280;46415;47.536;19.066;2023-05-25T01:16:40;-18660.19;;;15.89;100.00
60583;BME280;46415;47.536;19.066;2023-05-25T01:19:44;-18654.19;;;15.67;100.00
60583;BME280;46415;47.536;19.066;2023-05-25T01:23:09;-18651.31;;;15.56;100.00
60583;BME280;46415;47.536;19.066;2023-05-25T01:26:15;-18648.59;;;15.46;100.00
60583;BME280;46415;47.536;19.066;2023-05-25T01:29:23;-18650.78;;;15.54;100.00
60583;BME280;46415;47.536;19.066;2023-05-25T01:32:27;-18649.53;;;15.49;100.00
60583;BME280;46415;47.536;19.066;2023-05-25T01:35:35;-18645.88;;;15.36;100.00
60583;BME280;46415;47.536;19.066;2023-05-25T01:38:38;-18643.13;;;15.26;100.00
60583;BME280;46415;47.536;19.066;2023-05-25T01:41:41;-18641.09;;;15.18;100.00
60583;BME280;46415;47.536;19.066;2023-05-25T01:44:44;-18640.28;;;15.15;100.00
60583;BME280;46415;47.536;19.066;2023-05-25T01:51:02;-18639.31;;;15.11;100.00
60583;BME280;46415;47.536;19.066;2023-05-25T01:54:19;-18638.22;;;15.07;100.00
60583;BME280;46415;47.536;19.066;2023-05-25T01:57:23;-18637.00;;;15.03;100.00
60583;BME280;46415;47.536;19.066;2023-05-25T02:00:28;-18635.22;;;14.96;100.00
60583;BME280;46415;47.536;19.066;2023-05-25T02:03:41;-18635.91;;;14.99;100.00
60583;BME280;46415;47.536;19.066;2023-05-25T02:06:50;-18632.50;;;14.86;100.00
60583;BME280;46415;47.536;19.066;2023-05-25T02:09:54;-18630.03;;;14.77;100.00
60583;BME280;46415;47.536;19.066;2023-05-25T02:12:57;-18628.69;;;14.72;100.00
60583;BME280;46415;47.536;19.066;2023-05-25T02:16:00;-18627.72;;;14.68;100.00
60583;BME280;46415;47.536;19.066;2023-05-25T02:19:03;-18627.03;;;14.66;100.00
60583;BME280;46415;47.536;19.066;2023-05-25T02:22:06;-18627.31;;;14.67;100.00
60583;BME280;46415;47.536;19.066;2023-05-25T02:25:09;-18627.44;;;14.67;100.00
60583;BME280;46415;47.536;19.066;2023-05-25T02:28:13;-18626.38;;;14.63;100.00
60583;BME280;46415;47.536;19.066;2023-05-25T02:31:15;-18626.38;;;14.63;100.00
60583;BME280;46415;47.536;19.066;2023-05-25T02:34:20;-18627.03;;;14.66;100.00
60583;BME280;46415;47.536;19.066;2023-05-25T02:37:23;-18625.81;;;14.61;100.00
60583;BME280;46415;47.536;19.066;2023-05-25T02:40:26;-18625.00;;;14.58;100.00
60583;BME280;46415;47.536;19.066;2023-05-25T02:43:29;-18623.50;;;14.53;100.00
60583;BME280;46415;47.536;19.066;2023-05-25T02:46:32;-18624.19;;;14.55;100.00
60583;BME280;46415;47.536;19.066;2023-05-25T02:49:35;-18625.00;;;14.58;100.00
60583;BME280;46415;47.536;19.066;2023-05-25T02:52:38;-18625.13;;;14.59;100.00
60583;BME280;46415;47.536;19.066;2023-05-25T02:55:41;-18624.44;;;14.56;100.00
60583;BME280;46415;47.536;19.066;2023-05-25T02:58:46;-18625.00;;;14.58;100.00
60583;BME280;46415;47.536;19.066;2023-05-25T03:01:50;-18626.78;;;14.65;100.00
60583;BME280;46415;47.536;19.066;2023-05-25T03:04:53;-18625.69;;;14.61;100.00
60583;BME280;46415;47.536;19.066;2023-05-25T03:07:56;-18624.44;;;14.56;100.00
60583;BME280;46415;47.536;19.066;2023-05-25T03:10:59;-18623.22;;;14.52;100.00
60583;BME280;46415;47.536;19.066;2023-05-25T03:14:01;-18622.94;;;14.51;100.00
60583;BME280;46415;47.536;19.066;2023-05-25T03:17:05;-18622.81;;;14.50;100.00
60583;BME280;46415;47.536;19.066;2023-05-25T03:20:08;-18621.19;;;14.44;100.00
60583;BME280;46415;47.536;19.066;2023-05-25T03:23:13;-18619.69;;;14.39;100.00
60583;BME280;46415;47.536;19.066;2023-05-25T03:26:16;-18619.41;;;14.38;100.00
60583;BME280;46415;47.536;19.066;2023-05-25T03:29:19;-18620.91;;;14.43;100.00
60583;BME280;46415;47.536;19.066;2023-05-25T03:32:23;-18621.72;;;14.46;100.00
60583;BME280;46415;47.536;19.066;2023-05-25T03:35:26;-18623.50;;;14.53;100.00
60583;BME280;46415;47.536;19.066;2023-05-25T03:38:28;-18625.13;;;14.59;100.00
60583;BME280;46415;47.536;19.066;2023-05-25T03:41:31;-18628.13;;;14.70;100.00
60583;BME280;46415;47.536;19.066;2023-05-25T03:44:34;-18630.19;;;14.78;100.00
60583;BME280;46415;47.536;19.066;2023-05-25T03:47:37;-18630.88;;;14.80;100.00
60583;BME280;46415;47.536;19.066;2023-05-25T03:50:39;-18631.00;;;14.81;100.00
60583;BME280;46415;47.536;19.066;2023-05-25T03:53:42;-18632.91;;;14.88;100.00
60583;BME280;46415;47.536;19.066;2023-05-25T03:56:48;-18634.53;;;14.94;100.00
60583;BME280;46415;47.536;19.066;2023-05-25T03:59:51;-18636.31;;;15.00;100.00
60583;BME280;46415;47.536;19.066;2023-05-25T04:02:53;-18637.13;;;15.03;100.00
60583;BME280;46415;47.536;19.066;2023-05-25T04:05:56;-18637.00;;;15.03;100.00
60583;BME280;46415;47.536;19.066;2023-05-25T04:09:04;-18637.41;;;15.04;100.00
60583;BME280;46415;47.536;19.066;2023-05-25T04:12:08;-18639.19;;;15.11;100.00
60583;BME280;46415;47.536;19.066;2023-05-25T04:15:10;-18640.69;;;15.17;100.00
60583;BME280;46415;47.536;19.066;2023-05-25T04:18:16;-18642.72;;;15.24;100.00
60583;BME280;46415;47.536;19.066;2023-05-25T04:21:21;-18647.09;;;15.40;100.00
60583;BME280;46415;47.536;19.066;2023-05-25T04:24:24;-18651.88;;;15.58;100.00
60583;BME280;46415;47.536;19.066;2023-05-25T04:27:27;-18655.28;;;15.71;100.00
60583;BME280;46415;47.536;19.066;2023-05-25T04:30:32;-18660.47;;;15.90;100.00
60583;BME280;46415;47.536;19.066;2023-05-25T04:33:37;-18663.72;;;16.02;100.00
60583;BME280;46415;47.536;19.066;2023-05-25T04:36:43;-18667.41;;;16.16;100.00
60583;BME280;46415;47.536;19.066;2023-05-25T04:39:46;-18666.19;;;16.11;100.00
60583;BME280;46415;47.536;19.066;2023-05-25T04:42:49;-18669.72;;;16.24;100.00
60583;BME280;46415;47.536;19.066;2023-05-25T04:45:55;-18672.03;;;16.33;100.00
60583;BME280;46415;47.536;19.066;2023-05-25T04:48:59;-18676.13;;;16.48;100.00
60583;BME280;46415;47.536;19.066;2023-05-25T04:52:02;-18676.13;;;16.48;100.00
60583;BME280;46415;47.536;19.066;2023-05-25T04:55:06;-18679.13;;;16.59;100.00
60583;BME280;46415;47.536;19.066;2023-05-25T04:58:09;-18679.13;;;16.59;100.00
60583;BME280;46415;47.536;19.066;2023-05-25T05:01:12;-18678.56;;;16.57;100.00
60583;BME280;46415;47.536;19.066;2023-05-25T05:04:15;-18679.94;;;16.62;100.00
60583;BME280;46415;47.536;19.066;2023-05-25T05:07:19;-18682.25;;;16.71;100.00
60583;BME280;46415;47.536;19.066;2023-05-25T05:10:23;-18684.84;;;16.81;100.00
60583;BME280;46415;47.536;19.066;2023-05-25T05:13:27;-18685.94;;;16.85;100.00
60583;BME280;46415;47.536;19.066;2023-05-25T05:16:29;-18686.22;;;16.86;100.00
60583;BME280;46415;47.536;19.066;2023-05-25T05:19:36;-18691.94;;;17.07;100.00
60583;BME280;46415;47.536;19.066;2023-05-25T05:22:40;-18696.69;;;17.25;100.00
60583;BME280;46415;47.536;19.066;2023-05-25T05:25:43;-18702.94;;;17.48;100.00
60583;BME280;46415;47.536;19.066;2023-05-25T05:28:48;-18713.16;;;17.86;100.00
60583;BME280;46415;47.536;19.066;2023-05-25T05:31:54;-18718.06;;;18.04;100.00
60583;BME280;46415;47.536;19.066;2023-05-25T05:34:57;-18724.03;;;18.26;100.00
60583;BME280;46415;47.536;19.066;2023-05-25T05:38:03;-18730.16;;;18.49;100.00
60583;BME280;46415;47.536;19.066;2023-05-25T05:41:06;-18735.75;;;18.70;100.00
60583;BME280;46415;47.536;19.066;2023-05-25T05:44:16;-18739.69;;;18.85;100.00
60583;BME280;46415;47.536;19.066;2023-05-25T05:47:18;-18743.09;;;18.97;100.00
60583;BME280;46415;47.536;19.066;2023-05-25T05:50:23;-18749.06;;;19.20;100.00
60583;BME280;46415;47.536;19.066;2023-05-25T05:53:25;-18751.50;;;19.29;100.00
60583;BME280;46415;47.536;19.066;2023-05-25T05:56:28;-18752.88;;;19.34;100.00
60583;BME280;46415;47.536;19.066;2023-05-25T05:59:31;-18756.41;;;19.47;100.00
60583;BME280;46415;47.536;19.066;2023-05-25T06:02:34;-18756.69;;;19.48;99.66
60583;BME280;46415;47.536;19.066;2023-05-25T06:05:39;-18759.13;;;19.57;97.79
60583;BME280;46415;47.536;19.066;2023-05-25T06:08:42;-18759.13;;;19.57;98.78
60583;BME280;46415;47.536;19.066;2023-05-25T06:11:46;-18761.84;;;19.67;97.40
60583;BME280;46415;47.536;19.066;2023-05-25T06:14:48;-18765.38;;;19.80;97.16
60583;BME280;46415;47.536;19.066;2023-05-25T06:17:54;-18768.63;;;19.92;95.55
60583;BME280;46415;47.536;19.066;2023-05-25T06:20:56;-18769.56;;;19.96;93.74
60583;BME280;46415;47.536;19.066;2023-05-25T06:23:59;-18771.06;;;20.02;93.64
60583;BME280;46415;47.536;19.066;2023-05-25T06:27:02;-18774.19;;;20.13;93.17
60583;BME280;46415;47.536;19.066;2023-05-25T06:30:06;-18776.22;;;20.21;93.04
60583;BME280;46415;47.536;19.066;2023-05-25T06:33:09;-18777.84;;;20.27;93.74
60583;BME280;46415;47.536;19.066;2023-05-25T06:36:12;-18780.84;;;20.38;91.66
60583;BME280;46415;47.536;19.066;2023-05-25T06:39:17;-18784.66;;;20.52;89.86
60583;BME280;46415;47.536;19.066;2023-05-25T06:42:20;-18786.81;;;20.60;89.61
60583;BME280;46415;47.536;19.066;2023-05-25T06:45:24;-18788.19;;;20.65;89.51
60583;BME280;46415;47.536;19.066;2023-05-25T06:48:27;-18789.00;;;20.68;88.63
60583;BME280;46415;47.536;19.066;2023-05-25T06:51:30;-18789.41;;;20.70;85.14
60583;BME280;46415;47.536;19.066;2023-05-25T06:54:34;-18792.91;;;20.83;87.08
60583;BME280;46415;47.536;19.066;2023-05-25T06:57:37;-18793.59;;;20.86;83.69
60583;BME280;46415;47.536;19.066;2023-05-25T07:00:40;-18797.00;;;20.98;82.88
60583;BME280;46415;47.536;19.066;2023-05-25T07:03:43;-18793.59;;;20.86;83.05
60583;BME280;46415;47.536;19.066;2023-05-25T07:06:45;-18796.72;;;20.97;84.85
60583;BME280;46415;47.536;19.066;2023-05-25T07:09:49;-18800.25;;;21.10;83.81
60583;BME280;46415;47.536;19.066;2023-05-25T07:12:52;-18799.56;;;21.08;83.34
60583;BME280;46415;47.536;19.066;2023-05-25T07:15:55;-18799.28;;;21.07;83.91
60583;BME280;46415;47.536;19.066;2023-05-25T07:18:58;-18802.97;;;21.21;81.89
60583;BME280;46415;47.536;19.066;2023-05-25T07:22:01;-18799.84;;;21.09;80.85
60583;BME280;46415;47.536;19.066;2023-05-25T07:25:05;-18805.81;;;21.31;80.82
60583;BME280;46415;47.536;19.066;2023-05-25T07:28:08;-18806.09;;;21.32;80.36
60583;BME280;46415;47.536;19.066;2023-05-25T07:31:11;-18808.53;;;21.41;79.46
60583;BME280;46415;47.536;19.066;2023-05-25T07:34:14;-18812.31;;;21.55;77.75
60583;BME280;46415;47.536;19.066;2023-05-25T07:37:17;-18816.38;;;21.71;77.00
60583;BME280;46415;47.536;19.066;2023-05-25T07:40:19;-18821.25;;;21.89;77.53
60583;BME280;46415;47.536;19.066;2023-05-25T07:43:22;-18821.00;;;21.88;77.70
60583;BME280;46415;47.536;19.066;2023-05-25T07:46:26;-18822.91;;;21.95;76.40
60583;BME280;46415;47.536;19.066;2023-05-25T07:49:29;-18830.75;;;22.24;74.98
60583;BME280;46415;47.536;19.066;2023-05-25T07:52:31;-18835.91;;;22.44;72.53
60583;BME280;46415;47.536;19.066;2023-05-25T07:55:34;-18831.56;;;22.27;68.88
60583;BME280;46415;47.536;19.066;2023-05-25T07:58:37;-18832.66;;;22.31;67.78
60583;BME280;46415;47.536;19.066;2023-05-25T08:01:40;-18835.75;;;22.43;67.43
60583;BME280;46415;47.536;19.066;2023-05-25T08:04:43;-18840.63;;;22.61;65.42
60583;BME280;46415;47.536;19.066;2023-05-25T08:07:46;-18844.31;;;22.75;66.75
60583;BME280;46415;47.536;19.066;2023-05-25T08:10:49;-18845.78;;;22.81;64.58
60583;BME280;46415;47.536;19.066;2023-05-25T08:13:52;-18848.91;;;22.92;65.54
60583;BME280;46415;47.536;19.066;2023-05-25T08:16:55;-18848.09;;;22.89;66.29
60583;BME280;46415;47.536;19.066;2023-05-25T08:19:58;-18847.16;;;22.86;66.06
60583;BME280;46415;47.536;19.066;2023-05-25T08:23:01;-18850.37;;;22.98;63.77
60583;BME280;46415;47.536;19.066;2023-05-25T08:26:03;-18845.94;;;22.81;63.92
60583;BME280;46415;47.536;19.066;2023-05-25T08:29:30;-18849.84;;;22.96;63.26
60583;BME280;46415;47.536;19.066;2023-05-25T08:32:33;-18853.50;;;23.09;62.94
60583;BME280;46415;47.536;19.066;2023-05-25T08:35:36;-18857.97;;;23.26;63.75
60583;BME280;46415;47.536;19.066;2023-05-25T08:38:44;-18866.63;;;23.58;62.75
60583;BME280;46415;47.536;19.066;2023-05-25T08:41:49;-18863.13;;;23.45;60.66
60583;BME280;46415;47.536;19.066;2023-05-25T08:44:53;-18865.41;;;23.54;61.53
60583;BME280;46415;47.536;19.066;2023-05-25T08:48:00;-18862.84;;;23.44;61.48
60583;BME280;46415;47.536;19.066;2023-05-25T08:51:06;-18861.91;;;23.41;63.06
60583;BME280;46415;47.536;19.066;2023-05-25T08:54:12;-18862.16;;;23.42;64.42
60583;BME280;46415;47.536;19.066;2023-05-25T08:57:26;-18875.84;;;23.93;62.26
60583;BME280;46415;47.536;19.066;2023-05-25T09:00:33;-18873.94;;;23.86;62.36
60583;BME280;46415;47.536;19.066;2023-05-25T09:03:38;-18886.50;;;24.33;61.40
60583;BME280;46415;47.536;19.066;2023-05-25T09:06:41;-18901.66;;;24.90;60.97
60583;BME280;46415;47.536;19.066;2023-05-25T09:10:03;-18911.09;;;25.25;58.53
60583;BME280;46415;47.536;19.066;2023-05-25T09:13:07;-18914.63;;;25.38;58.39
60583;BME280;46415;47.536;19.066;2023-05-25T09:16:24;-18909.75;;;25.20;58.76
60583;BME280;46415;47.536;19.066;2023-05-25T09:19:28;-18907.59;;;25.12;59.11
60583;BME280;46415;47.536;19.066;2023-05-25T09:22:30;-18913.41;;;25.34;58.49
60583;BME280;46415;47.536;19.066;2023-05-25T09:25:34;-18914.34;;;25.37;59.19
60583;BME280;46415;47.536;19.066;2023-05-25T09:28:44;-18916.63;;;25.46;60.06
60583;BME280;46415;47.536;19.066;2023-05-25T09:31:48;-18924.88;;;25.77;57.92
60583;BME280;46415;47.536;19.066;2023-05-25T09:34:51;-18925.16;;;25.78;57.45
60583;BME280;46415;47.536;19.066;2023-05-25T09:37:55;-18917.72;;;25.50;58.60
60583;BME280;46415;47.536;19.066;2023-05-25T09:41:00;-18909.34;;;25.18;60.11
60583;BME280;46415;47.536;19.066;2023-05-25T09:44:03;-18913.81;;;25.35;59.98
60583;BME280;46415;47.536;19.066;2023-05-25T09:47:13;-18916.78;;;25.46;60.69
60583;BME280;46415;47.536;19.066;2023-05-25T09:50:18;-18928.13;;;25.89;57.53
60583;BME280;46415;47.536;19.066;2023-05-25T09:53:21;-18917.19;;;25.48;57.76
60583;BME280;46415;47.536;19.066;2023-05-25T09:56:25;-18914.63;;;25.38;60.38
60583;BME280;46415;47.536;19.066;2023-05-25T09:59:29;-18914.34;;;25.37;62.02
60583;BME280;46415;47.536;19.066;2023-05-25T10:02:32;-18927.44;;;25.86;59.93
60583;BME280;46415;47.536;19.066;2023-05-25T10:05:35;-18915.69;;;25.42;59.69
60583;BME280;46415;47.536;19.066;2023-05-25T10:08:38;-18913.41;;;25.34;61.25
60583;BME280;46415;47.536;19.066;2023-05-25T10:11:42;-18916.91;;;25.47;59.33
60583;BME280;46415;47.536;19.066;2023-05-25T10:14:45;-18926.22;;;25.82;61.79
60583;BME280;46415;47.536;19.066;2023-05-25T10:17:53;-18931.34;;;26.01;56.37
60583;BME280;46415;47.536;19.066;2023-05-25T10:21:02;-18935.41;;;26.16;55.85
60583;BME280;46415;47.536;19.066;2023-05-25T10:24:14;-18930.53;;;25.98;56.47
60583;BME280;46415;47.536;19.066;2023-05-25T10:27:23;-18914.47;;;25.38;59.02
60583;BME280;46415;47.536;19.066;2023-05-25T10:30:30;-18942.69;;;26.44;54.65
60583;BME280;46415;47.536;19.066;2023-05-25T10:33:33;-18933.13;;;26.08;53.76
60583;BME280;46415;47.536;19.066;2023-05-25T10:36:48;-18950.50;;;26.73;54.07
60583;BME280;46415;47.536;19.066;2023-05-25T10:39:51;-18947.53;;;26.62;54.09
60583;BME280;46415;47.536;19.066;2023-05-25T10:42:55;-18930.53;;;25.98;57.81
60583;BME280;46415;47.536;19.066;2023-05-25T10:45:58;-18913.25;;;25.33;59.17
60583;BME280;46415;47.536;19.066;2023-05-25T10:49:01;-18912.59;;;25.31;59.70
60583;BME280;46415;47.536;19.066;2023-05-25T10:52:04;-18912.19;;;25.29;58.03
60583;BME280;46415;47.536;19.066;2023-05-25T10:55:07;-18914.06;;;25.36;57.90
60583;BME280;46415;47.536;19.066;2023-05-25T10:58:12;-18920.97;;;25.62;55.44
60583;BME280;46415;47.536;19.066;2023-05-25T11:01:15;-18943.09;;;26.45;53.51
60583;BME280;46415;47.536;19.066;2023-05-25T11:04:18;-18957.78;;;27.00;51.07
60583;BME280;46415;47.536;19.066;2023-05-25T11:07:21;-18948.75;;;26.66;52.02
60583;BME280;46415;47.536;19.066;2023-05-25T11:13:46;-18926.63;;;25.83;56.39
60583;BME280;46415;47.536;19.066;2023-05-25T11:17:08;-18927.03;;;25.85;56.47
60583;BME280;46415;47.536;19.066;2023-05-25T11:20:21;-18944.31;;;26.50;52.22
60583;BME280;46415;47.536;19.066;2023-05-25T11:23:26;-18954.84;;;26.89;49.72
60583;BME280;46415;47.536;19.066;2023-05-25T11:26:32;-18957.41;;;26.99;50.38
60583;BME280;46415;47.536;19.066;2023-05-25T11:29:35;-18967.22;;;27.36;50.41
60583;BME280;46415;47.536;19.066;2023-05-25T11:32:47;-18976.12;;;27.69;51.98
60583;BME280;46415;47.536;19.066;2023-05-25T11:35:53;-18966.97;;;27.35;50.23
60583;BME280;46415;47.536;19.066;2023-05-25T11:38:56;-18947.94;;;26.63;52.42
60583;BME280;46415;47.536;19.066;2023-05-25T11:42:13;-18936.34;;;26.20;54.84
60583;BME280;46415;47.536;19.066;2023-05-25T11:45:16;-18915.03;;;25.40;57.43
60583;BME280;46415;47.536;19.066;2023-05-25T11:48:19;-18943.38;;;26.46;55.52
60583;BME280;46415;47.536;19.066;2023-05-25T11:51:25;-18964.66;;;27.26;50.85
60583;BME280;46415;47.536;19.066;2023-05-25T11:54:29;-18960.50;;;27.10;53.13
60583;BME280;46415;47.536;19.066;2023-05-25T11:57:32;-18945.13;;;26.53;52.76
60583;BME280;46415;47.536;19.066;2023-05-25T12:00:34;-18929.75;;;25.95;54.56
60583;BME280;46415;47.536;19.066;2023-05-25T12:03:37;-18919.06;;;25.55;56.45
60583;BME280;46415;47.536;19.066;2023-05-25T12:06:40;-18914.88;;;25.39;58.43
60583;BME280;46415;47.536;19.066;2023-05-25T12:09:43;-18914.88;;;25.39;58.69
60583;BME280;46415;47.536;19.066;2023-05-25T12:12:48;-18906.78;;;25.09;58.61
60583;BME280;46415;47.536;19.066;2023-05-25T12:15:54;-18902.88;;;24.94;59.32
60583;BME280;46415;47.536;19.066;2023-05-25T12:18:59;-18898.41;;;24.77;59.48
60583;BME280;46415;47.536;19.066;2023-05-25T12:22:02;-18898.53;;;24.78;60.46
60583;BME280;46415;47.536;19.066;2023-05-25T12:25:09;-18901.53;;;24.89;59.79
60583;BME280;46415;47.536;19.066;2023-05-25T12:28:13;-18918.94;;;25.54;57.09
60583;BME280;46415;47.536;19.066;2023-05-25T12:31:24;-18922.44;;;25.68;56.21
60583;BME280;46415;47.536;19.066;2023-05-25T12:34:27;-18944.59;;;26.51;56.43
60583;BME280;46415;47.536;19.066;2023-05-25T12:37:30;-18947.81;;;26.63;50.12
60583;BME280;46415;47.536;19.066;2023-05-25T12:40:33;-18959.69;;;27.07;51.97
60583;BME280;46415;47.536;19.066;2023-05-25T12:43:40;-18959.94;;;27.08;51.39
60583;BME280;46415;47.536;19.066;2023-05-25T12:46:44;-18950.25;;;26.72;52.97
60583;BME280;46415;47.536;19.066;2023-05-25T12:49:52;-18942.16;;;26.41;54.75
60583;BME280;46415;47.536;19.066;2023-05-25T12:53:00;-18937.44;;;26.24;55.07
60583;BME280;46415;47.536;19.066;2023-05-25T12:56:03;-18928.53;;;25.90;54.47
60583;BME280;46415;47.536;19.066;2023-05-25T12:59:14;-18928.38;;;25.90;53.83
60583;BME280;46415;47.536;19.066;2023-05-25T13:02:16;-18928.38;;;25.90;53.97
60583;BME280;46415;47.536;19.066;2023-05-25T13:05:24;-18930.69;;;25.98;55.30
60583;BME280;46415;47.536;19.066;2023-05-25T13:08:28;-18932.44;;;26.05;54.54
60583;BME280;46415;47.536;19.066;2023-05-25T13:11:31;-18935.41;;;26.16;55.07
60583;BME280;46415;47.536;19.066;2023-05-25T13:14:34;-18936.22;;;26.19;56.04
60583;BME280;46415;47.536;19.066;2023-05-25T13:17:40;-18933.25;;;26.08;54.30
60583;BME280;46415;47.536;19.066;2023-05-25T13:20:45;-18931.22;;;26.00;54.63
60583;BME280;46415;47.536;19.066;2023-05-25T13:23:53;-18928.38;;;25.90;53.04
60583;BME280;46415;47.536;19.066;2023-05-25T13:26:55;-18927.56;;;25.87;53.21
60583;BME280;46415;47.536;19.066;2023-05-25T13:29:58;-18943.50;;;26.47;52.77
60583;BME280;46415;47.536;19.066;2023-05-25T13:33:01;-18954.97;;;26.90;53.09
60583;BME280;46415;47.536;19.066;2023-05-25T13:36:04;-18964.41;;;27.25;53.54
60583;BME280;46415;47.536;19.066;2023-05-25T13:39:09;-18971.28;;;27.51;52.18
60583;BME280;46415;47.536;19.066;2023-05-25T13:42:15;-18977.75;;;27.75;51.37
60583;BME280;46415;47.536;19.066;2023-05-25T13:45:37;-18977.47;;;27.74;49.39
60583;BME280;46415;47.536;19.066;2023-05-25T13:49:01;-18980.97;;;27.87;50.79
60583;BME280;46415;47.536;19.066;2023-05-25T13:52:24;-18991.34;;;28.26;50.77
60583;BME280;46415;47.536;19.066;2023-05-25T13:55:48;-18994.03;;;28.36;48.25
60583;BME280;46415;47.536;19.066;2023-05-25T13:58:51;-18987.56;;;28.12;46.75
60583;BME280;46415;47.536;19.066;2023-05-25T14:01:55;-18992.16;;;28.29;47.04
60583;BME280;46415;47.536;19.066;2023-05-25T14:04:58;-18991.88;;;28.28;47.85
60583;BME280;46415;47.536;19.066;2023-05-25T14:08:01;-18983.66;;;27.97;47.93
60583;BME280;46415;47.536;19.066;2023-05-25T14:11:06;-18973.44;;;27.59;47.53
60583;BME280;46415;47.536;19.066;2023-05-25T14:14:09;-18964.13;;;27.24;48.98
60583;BME280;46415;47.536;19.066;2023-05-25T14:17:32;-18971.28;;;27.51;49.43
60583;BME280;46415;47.536;19.066;2023-05-25T14:20:35;-18994.16;;;28.37;46.71
60583;BME280;46415;47.536;19.066;2023-05-25T14:23:39;-19006.53;;;28.84;47.43
60583;BME280;46415;47.536;19.066;2023-05-25T14:26:42;-19012.19;;;29.05;45.86
60583;BME280;46415;47.536;19.066;2023-05-25T14:29:46;-19008.56;;;28.91;46.16
60583;BME280;46415;47.536;19.066;2023-05-25T14:32:49;-19020.81;;;29.37;43.50
60583;BME280;46415;47.536;19.066;2023-05-25T14:35:52;-19021.75;;;29.41;44.98
60583;BME280;46415;47.536;19.066;2023-05-25T14:38:54;-19018.09;;;29.27;44.87
60583;BME280;46415;47.536;19.066;2023-05-25T14:41:57;-19020.81;;;29.37;43.70
60583;BME280;46415;47.536;19.066;2023-05-25T14:45:00;-19020.81;;;29.37;44.14
60583;BME280;46415;47.536;19.066;2023-05-25T14:48:03;-19035.06;;;29.91;43.75
60583;BME280;46415;47.536;19.066;2023-05-25T14:51:18;-19054.00;;;30.62;42.43
60583;BME280;46415;47.536;19.066;2023-05-25T14:54:21;-19072.38;;;31.32;40.03
60583;BME280;46415;47.536;19.066;2023-05-25T14:57:23;-19071.56;;;31.29;40.59
60583;BME280;46415;47.536;19.066;2023-05-25T15:00:26;-19102.25;;;32.45;37.39
60583;BME280;46415;47.536;19.066;2023-05-25T15:03:29;-19141.22;;;33.92;34.84
60583;BME280;46415;47.536;19.066;2023-05-25T15:06:32;-19174.75;;;35.19;32.13
60583;BME280;46415;47.536;19.066;2023-05-25T15:09:35;-19203.81;;;36.29;30.32
60583;BME280;46415;47.536;19.066;2023-05-25T15:12:38;-19241.13;;;37.71;28.13
60583;BME280;46415;47.536;19.066;2023-05-25T15:15:40;-19240.06;;;37.67;27.86
60583;BME280;46415;47.536;19.066;2023-05-25T15:18:43;-19223.13;;;37.03;28.26
60583;BME280;46415;47.536;19.066;2023-05-25T15:21:46;-19254.56;;;38.22;27.84
60583;BME280;46415;47.536;19.066;2023-05-25T15:24:49;-19279.13;;;39.16;26.21
60583;BME280;46415;47.536;19.066;2023-05-25T15:27:52;-19296.53;;;39.82;24.93
60583;BME280;46415;47.536;19.066;2023-05-25T15:30:55;-19288.69;;;39.52;25.58
60583;BME280;46415;47.536;19.066;2023-05-25T15:33:57;-19284.31;;;39.36;25.79
60583;BME280;46415;47.536;19.066;2023-05-25T15:37:02;-19262.25;;;38.52;26.20
60583;BME280;46415;47.536;19.066;2023-05-25T15:40:05;-19251.75;;;38.12;27.57
60583;BME280;46415;47.536;19.066;2023-05-25T15:43:08;-19250.28;;;38.06;26.96
60583;BME280;46415;47.536;19.066;2023-05-25T15:46:11;-19275.56;;;39.02;25.83
60583;BME280;46415;47.536;19.066;2023-05-25T15:49:14;-19290.28;;;39.58;25.82
60583;BME280;46415;47.536;19.066;2023-05-25T15:52:16;-19291.09;;;39.62;24.66